createdAt,value
2023-09-16T00:00:13.957Z,22.25
2023-09-16T00:03:07.440Z,22.25
2023-09-16T00:05:41.124Z,22.25
2023-09-16T00:08:13.626Z,22.23
2023-09-16T00:10:46.978Z,22.26
2023-09-16T00:13:19.572Z,22.28
2023-09-16T00:15:52.205Z,22.30
2023-09-16T00:18:24.653Z,22.28
2023-09-16T00:20:57.151Z,22.21
2023-09-16T00:23:29.731Z,22.20
2023-09-16T00:26:05.006Z,22.22
2023-09-16T00:28:38.060Z,22.21
2023-09-16T00:31:12.939Z,22.19
2023-09-16T00:33:45.378Z,22.18
2023-09-16T00:36:17.769Z,22.16
2023-09-16T00:38:48.802Z,22.13
2023-09-16T00:41:21.379Z,22.07
2023-09-16T00:43:54.008Z,22.03
2023-09-16T00:46:27.747Z,22.01
2023-09-16T00:49:00.298Z,21.99
2023-09-16T00:51:32.798Z,21.95
2023-09-16T00:54:05.704Z,21.91
2023-09-16T00:56:39.599Z,21.90
2023-09-16T00:59:12.350Z,21.87
2023-09-16T01:01:51.300Z,21.82
2023-09-16T01:04:24.838Z,21.77
2023-09-16T01:06:57.457Z,21.76
2023-09-16T01:09:29.965Z,21.73
2023-09-16T01:12:02.431Z,21.69
2023-09-16T01:14:35.589Z,21.69
2023-09-16T01:17:12.098Z,21.68
2023-09-16T01:19:50.082Z,21.65
2023-09-16T01:22:23.137Z,21.61
2023-09-16T01:24:57.751Z,21.58
2023-09-16T01:27:30.326Z,21.60
2023-09-16T01:30:03.809Z,21.58
2023-09-16T01:32:44.458Z,21.55
2023-09-16T01:35:18.572Z,21.51
2023-09-16T01:37:54.192Z,21.50
2023-09-16T01:40:27.637Z,21.50
2023-09-16T01:43:04.359Z,21.52
2023-09-16T01:45:45.690Z,21.55
2023-09-16T01:48:18.294Z,21.52
2023-09-16T01:50:51.236Z,21.51
2023-09-16T01:53:26.824Z,21.48
2023-09-16T01:55:59.302Z,21.46
2023-09-16T01:58:30.001Z,21.44
2023-09-16T02:01:02.607Z,21.39
2023-09-16T02:03:33.834Z,21.37
2023-09-16T02:06:07.471Z,21.36
2023-09-16T02:08:39.841Z,21.35
2023-09-16T02:11:10.446Z,21.34
2023-09-16T02:13:42.856Z,21.31
2023-09-16T02:16:15.986Z,21.29
2023-09-16T02:18:48.718Z,21.26
2023-09-16T02:21:22.957Z,21.25
2023-09-16T02:23:55.435Z,21.24
2023-09-16T02:26:27.926Z,21.25
2023-09-16T02:29:00.434Z,21.24
2023-09-16T02:31:31.229Z,21.18
2023-09-16T02:34:04.103Z,21.15
2023-09-16T02:36:37.829Z,21.12
2023-09-16T02:39:10.438Z,21.13
2023-09-16T02:41:42.805Z,21.18
2023-09-16T02:44:15.434Z,21.22
2023-09-16T02:46:46.119Z,21.23
2023-09-16T02:49:18.469Z,21.20
2023-09-16T02:51:51.182Z,21.22
2023-09-16T02:54:23.598Z,21.19
2023-09-16T02:56:54.255Z,21.17
2023-09-16T02:59:26.780Z,21.14
2023-09-16T03:01:59.452Z,21.14
2023-09-16T03:04:31.924Z,21.15
2023-09-16T03:07:02.766Z,21.13
2023-09-16T03:09:35.277Z,21.09
2023-09-16T03:12:10.549Z,21.10
2023-09-16T03:14:42.920Z,21.11
2023-09-16T03:17:13.534Z,21.13
2023-09-16T03:19:46.518Z,21.13
2023-09-16T03:22:18.972Z,21.15
2023-09-16T03:24:49.992Z,21.18
2023-09-16T03:27:22.488Z,21.20
2023-09-16T03:29:54.951Z,21.23
2023-09-16T03:32:28.648Z,21.24
2023-09-16T03:35:00.997Z,21.23
2023-09-16T03:37:33.303Z,21.24
2023-09-16T03:40:04.206Z,21.21
2023-09-16T03:42:40.314Z,21.18
2023-09-16T03:45:26.942Z,21.21
2023-09-16T03:48:01.289Z,21.22
2023-09-16T03:50:32.091Z,21.22
2023-09-16T03:53:11.138Z,21.18
2023-09-16T03:55:43.951Z,21.18
2023-09-16T03:58:16.405Z,21.18
2023-09-16T04:00:49.236Z,21.17
2023-09-16T04:03:21.696Z,21.13
2023-09-16T04:05:55.949Z,21.13
2023-09-16T04:08:37.960Z,21.10
2023-09-16T04:11:14.477Z,21.11
2023-09-16T04:13:47.052Z,21.12
2023-09-16T04:16:19.768Z,21.13
2023-09-16T04:18:54.624Z,21.19
2023-09-16T04:21:27.811Z,21.26
2023-09-16T04:24:00.188Z,21.27
2023-09-16T04:26:30.900Z,21.25
2023-09-16T04:29:04.052Z,21.23
2023-09-16T04:31:36.682Z,21.23
2023-09-16T04:34:09.040Z,21.19
2023-09-16T04:36:40.581Z,21.16
2023-09-16T04:39:13.022Z,21.11
2023-09-16T04:41:43.737Z,21.08
2023-09-16T04:44:16.020Z,21.07
2023-09-16T04:46:48.625Z,21.12
2023-09-16T04:49:21.195Z,21.13
2023-09-16T04:51:55.271Z,21.17
2023-09-16T04:54:27.925Z,21.22
2023-09-16T04:56:58.948Z,21.23
2023-09-16T04:59:33.894Z,21.20
2023-09-16T05:02:06.527Z,21.21
2023-09-16T05:04:39.054Z,21.25
2023-09-16T05:07:09.828Z,21.22
2023-09-16T05:09:42.426Z,21.18
2023-09-16T05:12:14.936Z,21.23
2023-09-16T05:14:47.332Z,21.33
2023-09-16T05:17:20.157Z,21.36
2023-09-16T05:19:52.675Z,21.38
2023-09-16T05:22:23.381Z,21.40
2023-09-16T05:24:55.678Z,21.38
2023-09-16T05:27:26.489Z,21.38
2023-09-16T05:29:58.921Z,21.37
2023-09-16T05:32:29.700Z,21.39
2023-09-16T05:35:02.183Z,21.37
2023-09-16T05:37:34.900Z,21.36
2023-09-16T05:40:08.770Z,21.42
2023-09-16T05:42:41.469Z,21.50
2023-09-16T05:45:14.545Z,21.58
2023-09-16T05:47:49.717Z,21.64
2023-09-16T05:50:22.484Z,21.66
2023-09-16T05:52:54.974Z,21.68
2023-09-16T05:55:27.334Z,21.70
2023-09-16T05:57:59.959Z,21.74
2023-09-16T06:00:32.386Z,21.80
2023-09-16T06:03:05.017Z,21.90
2023-09-16T06:05:37.646Z,22.02
2023-09-16T06:08:11.945Z,22.14
2023-09-16T06:10:44.236Z,22.24
2023-09-16T06:13:16.772Z,22.30
2023-09-16T06:15:49.363Z,22.30
2023-09-16T06:18:21.952Z,22.31
2023-09-16T06:20:54.645Z,22.31
2023-09-16T06:23:29.892Z,22.38
2023-09-16T06:26:03.503Z,22.44
2023-09-16T06:28:36.097Z,22.56
2023-09-16T06:31:10.964Z,22.77
2023-09-16T06:33:43.578Z,22.93
2023-09-16T06:36:18.974Z,23.04
2023-09-16T06:38:51.557Z,23.04
2023-09-16T06:41:25.635Z,23.06
2023-09-16T06:43:58.302Z,23.07
2023-09-16T06:46:31.056Z,23.08
2023-09-16T06:49:03.490Z,23.07
2023-09-16T06:51:36.330Z,23.00
2023-09-16T06:54:09.441Z,23.00
2023-09-16T06:56:41.936Z,23.17
2023-09-16T06:59:14.633Z,23.31
2023-09-16T07:01:50.924Z,23.41
2023-09-16T07:04:27.845Z,23.48
2023-09-16T07:07:01.685Z,23.49
2023-09-16T07:09:33.708Z,23.49
2023-09-16T07:12:09.737Z,23.36
2023-09-16T07:14:42.859Z,23.36
2023-09-16T07:17:15.127Z,23.37
2023-09-16T07:19:49.839Z,23.39
2023-09-16T07:22:26.601Z,23.37
2023-09-16T07:25:04.057Z,23.39
2023-09-16T07:27:38.394Z,23.41
2023-09-16T07:30:12.529Z,23.44
2023-09-16T07:32:47.054Z,23.46
2023-09-16T07:35:19.577Z,23.49
2023-09-16T07:37:50.210Z,23.52
2023-09-16T07:40:22.863Z,23.50
2023-09-16T07:42:57.591Z,23.48
2023-09-16T07:45:34.825Z,23.50
2023-09-16T07:48:10.627Z,23.53
2023-09-16T07:50:43.360Z,23.59
2023-09-16T07:53:17.075Z,23.63
2023-09-16T07:55:49.461Z,23.66
2023-09-16T07:58:22.658Z,23.69
2023-09-16T08:00:55.792Z,23.69
2023-09-16T08:03:33.378Z,23.70
2023-09-16T08:06:06.088Z,23.71
2023-09-16T08:08:38.499Z,23.71
2023-09-16T08:11:12.594Z,23.69
2023-09-16T08:13:45.094Z,23.67
2023-09-16T08:16:20.050Z,23.63
2023-09-16T08:18:53.136Z,23.67
2023-09-16T08:21:26.232Z,23.73
2023-09-16T08:24:02.518Z,23.77
2023-09-16T08:26:35.314Z,23.83
2023-09-16T08:29:11.322Z,23.82
2023-09-16T08:31:45.657Z,23.84
2023-09-16T08:34:18.356Z,23.82
2023-09-16T08:36:50.878Z,23.83
2023-09-16T08:39:23.594Z,23.79
2023-09-16T08:42:02.203Z,23.80
2023-09-16T08:44:41.442Z,23.80
2023-09-16T08:47:21.614Z,23.82
2023-09-16T08:49:58.447Z,23.78
2023-09-16T08:52:36.309Z,23.82
2023-09-16T08:55:15.806Z,23.86
2023-09-16T08:57:50.837Z,23.90
2023-09-16T09:00:28.738Z,23.88
2023-09-16T09:03:03.720Z,23.87
2023-09-16T09:05:38.817Z,23.88
2023-09-16T09:08:13.965Z,23.93
2023-09-16T09:10:46.625Z,23.99
2023-09-16T09:13:21.903Z,24.05
2023-09-16T09:16:01.701Z,24.07
2023-09-16T09:18:34.912Z,24.09
2023-09-16T09:21:11.351Z,24.12
2023-09-16T09:23:47.395Z,24.11
2023-09-16T09:26:20.067Z,24.12
2023-09-16T09:28:54.984Z,24.15
2023-09-16T09:31:27.671Z,24.21
2023-09-16T09:34:03.699Z,24.30
2023-09-16T09:36:43.491Z,24.35
2023-09-16T09:39:16.012Z,24.33
2023-09-16T09:41:50.892Z,24.32
2023-09-16T09:44:24.879Z,24.36
2023-09-16T09:46:57.345Z,24.41
2023-09-16T09:49:30.711Z,24.48
2023-09-16T09:52:05.968Z,24.50
2023-09-16T09:54:40.958Z,24.49
2023-09-16T09:57:17.432Z,24.53
2023-09-16T09:59:52.341Z,24.58
2023-09-16T10:02:29.351Z,24.63
2023-09-16T10:05:04.875Z,24.63
2023-09-16T10:07:54.718Z,24.61
2023-09-16T10:10:28.977Z,24.57
2023-09-16T10:13:22.441Z,24.51
2023-09-16T10:16:02.909Z,24.54
2023-09-16T10:18:39.259Z,24.58
2023-09-16T10:21:16.354Z,24.62
2023-09-16T10:23:51.367Z,24.62
2023-09-16T10:26:31.738Z,24.57
2023-09-16T10:29:08.762Z,24.56
2023-09-16T10:31:45.216Z,24.54
2023-09-16T10:34:26.241Z,24.59
2023-09-16T10:37:02.976Z,24.53
2023-09-16T10:39:39.240Z,24.50
2023-09-16T10:42:18.234Z,24.52
2023-09-16T10:44:52.839Z,24.51
2023-09-16T10:47:28.198Z,24.49
2023-09-16T10:50:04.140Z,24.56
2023-09-16T10:52:43.889Z,24.58
2023-09-16T11:01:31.791Z,24.72
2023-09-16T11:04:12.041Z,24.75
2023-09-16T11:06:48.973Z,24.82
2023-09-16T11:09:25.905Z,24.86
2023-09-16T11:11:58.843Z,24.86
2023-09-16T11:14:31.611Z,24.90
2023-09-16T11:17:15.953Z,24.92
2023-09-16T11:19:49.086Z,24.94
2023-09-16T11:22:21.615Z,24.93
2023-09-16T11:24:57.467Z,24.94
2023-09-16T11:27:30.492Z,24.94
2023-09-16T11:30:14.142Z,25.01
2023-09-16T11:33:25.940Z,25.03
2023-09-16T11:36:13.469Z,25.02
2023-09-16T11:39:00.361Z,25.03
2023-09-16T11:41:32.996Z,25.04
2023-09-16T11:44:07.468Z,25.01
2023-09-16T11:46:40.788Z,24.97
2023-09-16T11:49:16.867Z,24.94
2023-09-16T11:51:52.599Z,24.94
2023-09-16T11:54:26.127Z,24.99
2023-09-16T11:56:59.565Z,25.03
2023-09-16T11:59:32.993Z,25.02
2023-09-16T12:02:05.865Z,25.01
2023-09-16T12:04:38.732Z,25.03
2023-09-16T12:07:15.212Z,25.05
2023-09-16T12:10:02.068Z,24.99
2023-09-16T12:12:37.153Z,24.93
2023-09-16T12:15:14.346Z,24.92
2023-09-16T12:17:50.411Z,24.94
2023-09-16T12:20:29.420Z,24.90
2023-09-16T12:23:09.058Z,24.97
2023-09-16T12:25:47.102Z,25.08
2023-09-16T12:28:30.361Z,25.37
2023-09-16T12:31:04.371Z,25.75
2023-09-16T12:33:56.178Z,25.94
2023-09-16T12:36:41.083Z,26.03
2023-09-16T12:39:20.098Z,26.26
2023-09-16T12:42:16.472Z,26.33
2023-09-16T12:44:54.645Z,26.29
2023-09-16T12:47:32.858Z,26.19
2023-09-16T12:50:07.972Z,26.22
2023-09-16T12:52:48.645Z,26.32
2023-09-16T12:55:32.733Z,26.45
2023-09-16T12:58:15.975Z,26.49
2023-09-16T13:01:02.496Z,26.42
2023-09-16T13:03:42.939Z,26.36
2023-09-16T13:06:20.319Z,26.37
2023-09-16T13:08:55.825Z,26.36
2023-09-16T13:11:44.544Z,26.37
2023-09-16T13:14:24.125Z,26.37
2023-09-16T13:17:00.245Z,26.30
2023-09-16T13:19:36.089Z,26.22
2023-09-16T13:22:18.450Z,26.24
2023-09-16T13:25:03.880Z,26.20
2023-09-16T13:27:40.510Z,26.01
2023-09-16T13:30:26.487Z,25.93
2023-09-16T13:33:00.334Z,25.87
2023-09-16T13:35:38.387Z,25.79
2023-09-16T13:38:12.122Z,25.74
2023-09-16T13:40:51.530Z,25.69
2023-09-16T13:43:24.109Z,25.57
2023-09-16T13:45:57.690Z,25.51
2023-09-16T13:48:32.951Z,25.49
2023-09-16T13:51:05.480Z,25.49
2023-09-16T13:53:38.131Z,25.47
2023-09-16T13:56:10.558Z,25.47
2023-09-16T13:58:44.685Z,25.46
2023-09-16T14:01:17.377Z,25.46
2023-09-16T14:03:50.223Z,25.47
2023-09-16T14:06:24.004Z,25.44
2023-09-16T14:08:56.387Z,25.41
2023-09-16T14:11:28.881Z,25.38
2023-09-16T14:14:01.646Z,25.33
2023-09-16T14:16:35.417Z,25.38
2023-09-16T14:19:08.901Z,25.43
2023-09-16T14:21:42.237Z,25.44
2023-09-16T14:24:14.926Z,25.40
2023-09-16T14:26:47.296Z,25.37
2023-09-16T14:29:19.737Z,25.28
2023-09-16T14:31:52.505Z,25.24
2023-09-16T14:34:24.960Z,25.20
2023-09-16T14:36:57.408Z,25.18
2023-09-16T14:39:29.983Z,25.21
2023-09-16T14:42:02.577Z,25.25
2023-09-16T14:44:37.286Z,25.20
2023-09-16T14:47:09.995Z,25.14
2023-09-16T14:49:42.619Z,25.05
2023-09-16T14:52:15.731Z,24.93
2023-09-16T14:54:48.208Z,24.92
2023-09-16T14:57:20.912Z,24.93
2023-09-16T14:59:51.537Z,24.82
2023-09-16T15:02:24.127Z,24.70
2023-09-16T15:04:58.252Z,24.69
2023-09-16T15:07:30.777Z,24.65
2023-09-16T15:10:03.457Z,24.58
2023-09-16T15:12:36.122Z,24.49
2023-09-16T15:15:11.303Z,24.42
2023-09-16T15:17:43.969Z,24.41
2023-09-16T15:20:16.803Z,24.41
2023-09-16T15:22:49.418Z,24.38
2023-09-16T15:25:22.070Z,24.33
2023-09-16T15:27:55.400Z,24.34
2023-09-16T15:30:28.560Z,24.37
2023-09-16T15:33:01.070Z,24.38
2023-09-16T15:35:36.373Z,24.36
2023-09-16T15:38:09.070Z,24.35
2023-09-16T15:40:41.474Z,24.36
2023-09-16T15:43:12.102Z,24.33
2023-09-16T15:45:44.422Z,24.31
2023-09-16T15:48:15.120Z,24.30
2023-09-16T15:50:50.719Z,24.31
2023-09-16T15:53:23.486Z,24.35
2023-09-16T15:55:56.246Z,24.38
2023-09-16T15:58:28.866Z,24.37
2023-09-16T16:01:01.441Z,24.35
2023-09-16T16:03:35.883Z,24.35
2023-09-16T16:06:08.596Z,24.35
2023-09-16T16:08:42.984Z,24.32
2023-09-16T16:11:15.525Z,24.29
2023-09-16T16:13:48.408Z,24.30
2023-09-16T16:16:21.491Z,24.29
2023-09-16T16:18:54.279Z,24.28
2023-09-16T16:21:27.228Z,24.29
2023-09-16T16:23:59.739Z,24.31
2023-09-16T16:26:33.201Z,24.33
2023-09-16T16:29:05.767Z,24.33
2023-09-16T16:31:38.280Z,24.32
2023-09-16T16:34:10.880Z,24.33
2023-09-16T16:36:44.414Z,24.31
2023-09-16T16:39:16.808Z,24.29
2023-09-16T16:41:50.455Z,24.26
2023-09-16T16:44:22.968Z,24.18
2023-09-16T16:47:00.748Z,24.10
2023-09-16T16:49:34.133Z,24.03
2023-09-16T16:52:06.942Z,23.96
2023-09-16T16:54:39.496Z,23.92
2023-09-16T16:57:11.784Z,23.86
2023-09-16T16:59:44.914Z,23.80
2023-09-16T17:02:17.533Z,23.73
2023-09-16T17:04:51.895Z,23.70
2023-09-16T17:07:24.582Z,23.63
2023-09-16T17:09:57.529Z,23.59
2023-09-16T17:12:30.150Z,23.54
2023-09-16T17:15:02.581Z,23.52
2023-09-16T17:17:35.066Z,23.51
2023-09-16T17:20:10.027Z,23.47
2023-09-16T17:22:42.640Z,23.43
2023-09-16T17:25:17.246Z,23.40
2023-09-16T17:27:49.705Z,23.37
2023-09-16T17:30:20.401Z,23.37
2023-09-16T17:32:53.788Z,23.33
2023-09-16T17:35:26.332Z,23.34
2023-09-16T17:37:59.050Z,23.29
2023-09-16T17:40:31.744Z,23.25
2023-09-16T17:43:04.587Z,23.25
2023-09-16T17:45:37.135Z,23.25
2023-09-16T17:48:09.804Z,23.25
2023-09-16T17:50:42.379Z,23.24
2023-09-16T17:53:14.813Z,23.21
2023-09-16T17:55:47.501Z,23.17
2023-09-16T17:58:20.476Z,23.11
2023-09-16T18:00:53.576Z,23.07
2023-09-16T18:03:26.212Z,23.06
2023-09-16T18:05:58.734Z,23.08
2023-09-16T18:08:35.758Z,23.08
2023-09-16T18:11:08.525Z,23.08
2023-09-16T18:13:41.084Z,23.08
2023-09-16T18:16:15.462Z,23.10
2023-09-16T18:18:48.481Z,23.10
2023-09-16T18:21:21.408Z,23.07
2023-09-16T18:23:54.392Z,23.05
2023-09-16T18:26:27.117Z,23.04
2023-09-16T18:29:00.436Z,23.05
2023-09-16T18:31:32.961Z,23.05
2023-09-16T18:34:05.844Z,23.00
2023-09-16T18:36:38.655Z,22.99
2023-09-16T18:39:11.596Z,22.99
2023-09-16T18:41:44.431Z,22.95
2023-09-16T18:44:17.642Z,22.84
2023-09-16T18:46:51.651Z,22.79
2023-09-16T18:49:28.556Z,22.78
2023-09-16T18:52:01.492Z,22.72
2023-09-16T18:54:35.368Z,22.70
2023-09-16T18:57:09.370Z,22.71
2023-09-16T18:59:42.029Z,22.72
2023-09-16T19:02:15.037Z,22.69
2023-09-16T19:04:47.817Z,22.63
2023-09-16T19:07:23.448Z,22.56
2023-09-16T19:09:57.976Z,22.54
2023-09-16T19:12:30.329Z,22.51
2023-09-16T19:15:04.346Z,22.49
2023-09-16T19:17:36.887Z,22.50
2023-09-16T19:20:12.226Z,22.50
2023-09-16T19:22:44.690Z,22.49
2023-09-16T19:25:16.206Z,22.42
2023-09-16T19:27:48.682Z,22.35
2023-09-16T19:30:19.598Z,22.31
2023-09-16T19:32:52.914Z,22.23
2023-09-16T19:35:27.299Z,22.20
2023-09-16T19:37:59.852Z,22.21
2023-09-16T19:40:32.330Z,22.20
2023-09-16T19:43:05.362Z,22.16
2023-09-16T19:45:38.038Z,22.11
2023-09-16T19:48:10.637Z,22.09
2023-09-16T19:50:44.251Z,22.08
2023-09-16T19:53:17.286Z,22.09
2023-09-16T19:55:50.257Z,22.10
2023-09-16T19:58:22.894Z,22.11
2023-09-16T20:01:01.511Z,22.11
2023-09-16T20:03:35.035Z,22.11
2023-09-16T20:06:14.974Z,22.11
2023-09-16T20:08:47.652Z,22.10
2023-09-16T20:11:26.998Z,22.09
2023-09-16T20:14:05.545Z,22.11
2023-09-16T20:16:41.600Z,22.12
2023-09-16T20:19:21.430Z,22.12
2023-09-16T20:21:59.135Z,22.13
2023-09-16T20:24:34.541Z,22.13
2023-09-16T20:27:10.380Z,22.11
2023-09-16T20:29:43.312Z,22.06
2023-09-16T20:32:20.316Z,22.04
2023-09-16T20:34:59.864Z,21.95
2023-09-16T20:37:44.126Z,21.91
2023-09-16T20:40:23.874Z,21.89
2023-09-16T20:42:56.486Z,21.90
2023-09-16T20:45:31.667Z,21.90
2023-09-16T20:48:07.474Z,21.88
2023-09-16T20:50:42.859Z,21.88
2023-09-16T20:53:16.151Z,21.90
2023-09-16T20:55:55.336Z,21.90
2023-09-16T20:58:27.901Z,21.90
2023-09-16T21:01:00.841Z,21.86
2023-09-16T21:03:40.819Z,21.83
2023-09-16T21:06:19.028Z,21.78
2023-09-16T21:08:52.060Z,21.77
2023-09-16T21:11:27.833Z,21.76
2023-09-16T21:14:08.869Z,21.78
2023-09-16T21:16:43.194Z,21.80
2023-09-16T21:19:15.882Z,21.81
2023-09-16T21:21:54.521Z,21.78
2023-09-16T21:24:30.229Z,21.76
2023-09-16T21:27:05.769Z,21.76
2023-09-16T21:29:42.594Z,21.74
2023-09-16T21:32:15.473Z,21.74
2023-09-16T21:34:48.439Z,21.73
2023-09-16T21:37:23.412Z,21.73
2023-09-16T21:39:56.535Z,21.72
2023-09-16T21:42:34.099Z,21.72
2023-09-16T21:45:10.928Z,21.71
2023-09-16T21:47:43.714Z,21.71
2023-09-16T21:50:16.448Z,21.71
2023-09-16T21:52:50.519Z,21.71
2023-09-16T21:55:26.064Z,21.69
2023-09-16T21:57:58.790Z,21.68
2023-09-16T22:00:35.963Z,21.69
2023-09-16T22:03:09.348Z,21.70
2023-09-16T22:05:42.910Z,21.67
2023-09-16T22:08:15.368Z,21.64
2023-09-16T22:10:48.071Z,21.64
2023-09-16T22:13:20.723Z,21.64
2023-09-16T22:15:54.540Z,21.66
2023-09-16T22:18:27.049Z,21.62
2023-09-16T22:20:57.874Z,21.57
2023-09-16T22:23:30.406Z,21.53
2023-09-16T22:26:08.342Z,21.54
2023-09-16T22:28:41.164Z,21.50
2023-09-16T22:31:17.297Z,21.46
2023-09-16T22:33:50.388Z,21.43
2023-09-16T22:36:25.262Z,21.44
2023-09-16T22:38:58.180Z,21.47
2023-09-16T22:41:30.847Z,21.49
2023-09-16T22:44:04.156Z,21.47
2023-09-16T22:46:37.526Z,21.46
2023-09-16T22:49:10.608Z,21.46
2023-09-16T22:51:43.260Z,21.42
2023-09-16T22:54:14.051Z,21.36
2023-09-16T22:56:46.504Z,21.30
2023-09-16T22:59:17.257Z,21.26
2023-09-16T23:01:49.991Z,21.22
2023-09-16T23:04:22.630Z,21.22
2023-09-16T23:06:55.963Z,21.20
2023-09-16T23:09:28.694Z,21.21
2023-09-16T23:12:01.863Z,21.23
2023-09-16T23:14:35.192Z,21.25
2023-09-16T23:17:08.468Z,21.28
2023-09-16T23:19:42.394Z,21.30
2023-09-16T23:22:15.107Z,21.31
2023-09-16T23:24:49.930Z,21.35
2023-09-16T23:27:22.563Z,21.35
2023-09-16T23:29:53.399Z,21.32
2023-09-16T23:32:25.974Z,21.30
2023-09-16T23:34:58.437Z,21.30
2023-09-16T23:37:29.364Z,21.27
2023-09-16T23:40:01.907Z,21.20
2023-09-16T23:42:34.739Z,21.18
2023-09-16T23:45:08.810Z,21.21
2023-09-16T23:47:41.344Z,21.19
2023-09-16T23:50:14.389Z,21.18
2023-09-16T23:52:46.909Z,21.15
2023-09-16T23:55:19.618Z,21.15
2023-09-16T23:57:52.311Z,21.15
